sensor_id;sensor_type;location;lat;lon;timestamp;temperature;humidity
20057;DHT22;10189;49.546;7.906;2023-04-29T00:01:29;10.00;99.90
20057;DHT22;10189;49.546;7.906;2023-04-29T00:03:55;10.00;99.90
20057;DHT22;10189;49.546;7.906;2023-04-29T00:06:21;10.00;99.90
20057;DHT22;10189;49.546;7.906;2023-04-29T00:08:48;10.10;99.90
20057;DHT22;10189;49.546;7.906;2023-04-29T00:11:14;10.10;99.90
20057;DHT22;10189;49.546;7.906;2023-04-29T00:13:40;10.10;99.90
20057;DHT22;10189;49.546;7.906;2023-04-29T00:16:06;10.00;99.90
20057;DHT22;10189;49.546;7.906;2023-04-29T00:18:34;10.00;99.90
20057;DHT22;10189;49.546;7.906;2023-04-29T00:21:02;10.00;99.90
20057;DHT22;10189;49.546;7.906;2023-04-29T00:23:31;10.00;99.90
20057;DHT22;10189;49.546;7.906;2023-04-29T00:25:58;9.90;99.90
20057;DHT22;10189;49.546;7.906;2023-04-29T00:28:24;9.90;99.90
20057;DHT22;10189;49.546;7.906;2023-04-29T00:30:49;10.00;99.90
20057;DHT22;10189;49.546;7.906;2023-04-29T00:33:16;10.00;99.90
20057;DHT22;10189;49.546;7.906;2023-04-29T00:35:42;10.00;99.90
20057;DHT22;10189;49.546;7.906;2023-04-29T00:38:08;10.00;99.90
20057;DHT22;10189;49.546;7.906;2023-04-29T00:40:33;10.00;99.90
20057;DHT22;10189;49.546;7.906;2023-04-29T00:43:00;10.00;99.90
20057;DHT22;10189;49.546;7.906;2023-04-29T00:45:26;10.00;99.90
20057;DHT22;10189;49.546;7.906;2023-04-29T00:47:52;9.90;99.90
20057;DHT22;10189;49.546;7.906;2023-04-29T00:50:18;9.80;99.90
20057;DHT22;10189;49.546;7.906;2023-04-29T00:52:44;9.80;99.90
20057;DHT22;10189;49.546;7.906;2023-04-29T00:55:12;9.70;99.90
20057;DHT22;10189;49.546;7.906;2023-04-29T00:57:38;9.70;99.90
20057;DHT22;10189;49.546;7.906;2023-04-29T01:00:05;9.60;99.90
20057;DHT22;10189;49.546;7.906;2023-04-29T01:02:34;9.50;99.90
20057;DHT22;10189;49.546;7.906;2023-04-29T01:05:01;9.40;99.90
20057;DHT22;10189;49.546;7.906;2023-04-29T01:07:44;9.40;99.90
20057;DHT22;10189;49.546;7.906;2023-04-29T01:10:30;9.40;99.90
20057;DHT22;10189;49.546;7.906;2023-04-29T01:13:16;9.40;99.90
20057;DHT22;10189;49.546;7.906;2023-04-29T01:16:01;9.40;99.90
20057;DHT22;10189;49.546;7.906;2023-04-29T01:18:52;9.30;99.90
20057;DHT22;10189;49.546;7.906;2023-04-29T01:21:25;9.20;99.90
20057;DHT22;10189;49.546;7.906;2023-04-29T01:23:52;9.20;99.90
20057;DHT22;10189;49.546;7.906;2023-04-29T01:26:23;9.10;99.90
20057;DHT22;10189;49.546;7.906;2023-04-29T01:31:54;9.00;99.90
20057;DHT22;10189;49.546;7.906;2023-04-29T01:34:54;8.90;99.90
20057;DHT22;10189;49.546;7.906;2023-04-29T01:40:19;8.80;99.90
20057;DHT22;10189;49.546;7.906;2023-04-29T01:43:04;8.80;99.90
20057;DHT22;10189;49.546;7.906;2023-04-29T01:45:34;8.70;99.90
20057;DHT22;10189;49.546;7.906;2023-04-29T01:48:03;8.70;99.90
20057;DHT22;10189;49.546;7.906;2023-04-29T01:50:30;8.70;99.90
20057;DHT22;10189;49.546;7.906;2023-04-29T01:53:05;8.70;99.90
20057;DHT22;10189;49.546;7.906;2023-04-29T01:55:32;8.70;99.90
20057;DHT22;10189;49.546;7.906;2023-04-29T01:58:19;8.70;99.90
20057;DHT22;10189;49.546;7.906;2023-04-29T02:01:08;8.70;99.90
20057;DHT22;10189;49.546;7.906;2023-04-29T02:03:35;8.70;99.90
20057;DHT22;10189;49.546;7.906;2023-04-29T02:06:03;8.60;99.90
20057;DHT22;10189;49.546;7.906;2023-04-29T02:08:31;8.50;99.90
20057;DHT22;10189;49.546;7.906;2023-04-29T02:10:59;8.40;99.90
20057;DHT22;10189;49.546;7.906;2023-04-29T02:13:39;8.20;99.90
20057;DHT22;10189;49.546;7.906;2023-04-29T02:16:12;8.10;99.90
20057;DHT22;10189;49.546;7.906;2023-04-29T02:18:49;8.00;99.90
20057;DHT22;10189;49.546;7.906;2023-04-29T02:21:15;8.00;99.90
20057;DHT22;10189;49.546;7.906;2023-04-29T02:23:41;7.90;99.90
20057;DHT22;10189;49.546;7.906;2023-04-29T02:26:06;7.90;99.90
20057;DHT22;10189;49.546;7.906;2023-04-29T02:28:34;7.80;99.90
20057;DHT22;10189;49.546;7.906;2023-04-29T02:31:00;7.80;99.90
20057;DHT22;10189;49.546;7.906;2023-04-29T02:33:26;7.70;99.90
20057;DHT22;10189;49.546;7.906;2023-04-29T02:35:52;7.70;99.90
20057;DHT22;10189;49.546;7.906;2023-04-29T02:38:18;7.80;99.90
20057;DHT22;10189;49.546;7.906;2023-04-29T02:40:44;7.80;99.90
20057;DHT22;10189;49.546;7.906;2023-04-29T02:43:12;7.90;99.90
20057;DHT22;10189;49.546;7.906;2023-04-29T02:45:38;8.00;99.90
20057;DHT22;10189;49.546;7.906;2023-04-29T02:48:05;8.10;99.90
20057;DHT22;10189;49.546;7.906;2023-04-29T02:50:31;8.20;99.90
20057;DHT22;10189;49.546;7.906;2023-04-29T02:53:00;8.30;99.90
20057;DHT22;10189;49.546;7.906;2023-04-29T02:55:26;8.40;99.90
20057;DHT22;10189;49.546;7.906;2023-04-29T02:57:54;8.40;99.90
20057;DHT22;10189;49.546;7.906;2023-04-29T03:00:20;8.50;99.90
20057;DHT22;10189;49.546;7.906;2023-04-29T03:02:46;8.60;99.90
20057;DHT22;10189;49.546;7.906;2023-04-29T03:05:13;8.60;99.90
20057;DHT22;10189;49.546;7.906;2023-04-29T03:07:40;8.70;99.90
20057;DHT22;10189;49.546;7.906;2023-04-29T03:10:06;8.60;99.90
20057;DHT22;10189;49.546;7.906;2023-04-29T03:12:34;8.70;99.90
20057;DHT22;10189;49.546;7.906;2023-04-29T03:15:01;8.60;99.90
20057;DHT22;10189;49.546;7.906;2023-04-29T03:17:27;8.70;99.90
20057;DHT22;10189;49.546;7.906;2023-04-29T03:19:53;8.70;99.90
20057;DHT22;10189;49.546;7.906;2023-04-29T03:22:19;8.70;99.90
20057;DHT22;10189;49.546;7.906;2023-04-29T03:24:45;8.70;99.90
20057;DHT22;10189;49.546;7.906;2023-04-29T03:27:11;8.70;99.90
20057;DHT22;10189;49.546;7.906;2023-04-29T03:29:37;8.70;99.90
20057;DHT22;10189;49.546;7.906;2023-04-29T03:32:03;8.80;99.90
20057;DHT22;10189;49.546;7.906;2023-04-29T03:34:30;8.80;99.90
20057;DHT22;10189;49.546;7.906;2023-04-29T03:37:20;8.80;99.90
20057;DHT22;10189;49.546;7.906;2023-04-29T03:39:52;8.90;99.90
20057;DHT22;10189;49.546;7.906;2023-04-29T03:42:18;8.90;99.90
20057;DHT22;10189;49.546;7.906;2023-04-29T03:44:44;8.90;99.90
20057;DHT22;10189;49.546;7.906;2023-04-29T03:47:10;8.90;99.90
20057;DHT22;10189;49.546;7.906;2023-04-29T03:49:35;8.90;99.90
20057;DHT22;10189;49.546;7.906;2023-04-29T03:52:02;8.90;99.90
20057;DHT22;10189;49.546;7.906;2023-04-29T03:54:29;8.90;99.90
20057;DHT22;10189;49.546;7.906;2023-04-29T03:56:55;8.90;99.90
20057;DHT22;10189;49.546;7.906;2023-04-29T03:59:22;8.90;99.90
20057;DHT22;10189;49.546;7.906;2023-04-29T04:01:49;8.90;99.90
20057;DHT22;10189;49.546;7.906;2023-04-29T04:04:16;9.00;99.90
20057;DHT22;10189;49.546;7.906;2023-04-29T04:06:44;9.00;99.90
20057;DHT22;10189;49.546;7.906;2023-04-29T04:09:16;9.10;99.90
20057;DHT22;10189;49.546;7.906;2023-04-29T04:11:43;9.10;99.90
20057;DHT22;10189;49.546;7.906;2023-04-29T04:14:10;9.20;99.90
20057;DHT22;10189;49.546;7.906;2023-04-29T04:16:36;9.30;99.90
20057;DHT22;10189;49.546;7.906;2023-04-29T04:19:03;9.30;99.90
20057;DHT22;10189;49.546;7.906;2023-04-29T04:21:31;9.40;99.90
20057;DHT22;10189;49.546;7.906;2023-04-29T04:24:03;9.40;99.90
20057;DHT22;10189;49.546;7.906;2023-04-29T04:26:29;9.50;99.90
20057;DHT22;10189;49.546;7.906;2023-04-29T04:29:25;9.60;99.90
20057;DHT22;10189;49.546;7.906;2023-04-29T04:32:01;9.60;99.90
20057;DHT22;10189;49.546;7.906;2023-04-29T04:34:30;9.60;99.90
20057;DHT22;10189;49.546;7.906;2023-04-29T04:36:59;9.70;99.90
20057;DHT22;10189;49.546;7.906;2023-04-29T04:39:25;9.70;99.90
20057;DHT22;10189;49.546;7.906;2023-04-29T04:41:54;9.70;99.90
20057;DHT22;10189;49.546;7.906;2023-04-29T04:44:22;9.70;99.90
20057;DHT22;10189;49.546;7.906;2023-04-29T04:47:05;9.80;99.90
20057;DHT22;10189;49.546;7.906;2023-04-29T04:49:54;9.80;99.90
20057;DHT22;10189;49.546;7.906;2023-04-29T04:52:21;9.90;99.90
20057;DHT22;10189;49.546;7.906;2023-04-29T04:54:54;10.00;99.90
20057;DHT22;10189;49.546;7.906;2023-04-29T04:57:23;10.00;99.90
20057;DHT22;10189;49.546;7.906;2023-04-29T04:59:50;10.00;99.90
20057;DHT22;10189;49.546;7.906;2023-04-29T05:02:17;10.00;99.90
20057;DHT22;10189;49.546;7.906;2023-04-29T05:04:43;10.10;99.90
20057;DHT22;10189;49.546;7.906;2023-04-29T05:07:10;10.10;99.90
20057;DHT22;10189;49.546;7.906;2023-04-29T05:09:57;10.10;99.90
20057;DHT22;10189;49.546;7.906;2023-04-29T05:12:23;10.20;99.90
20057;DHT22;10189;49.546;7.906;2023-04-29T05:14:58;10.30;99.90
20057;DHT22;10189;49.546;7.906;2023-04-29T05:17:25;10.40;99.90
20057;DHT22;10189;49.546;7.906;2023-04-29T05:19:52;10.40;99.90
20057;DHT22;10189;49.546;7.906;2023-04-29T05:22:19;10.50;99.90
20057;DHT22;10189;49.546;7.906;2023-04-29T05:24:45;10.50;99.90
20057;DHT22;10189;49.546;7.906;2023-04-29T05:27:14;10.60;99.90
20057;DHT22;10189;49.546;7.906;2023-04-29T05:29:40;10.70;99.90
20057;DHT22;10189;49.546;7.906;2023-04-29T05:32:06;10.80;99.80
20057;DHT22;10189;49.546;7.906;2023-04-29T05:34:32;10.90;99.90
20057;DHT22;10189;49.546;7.906;2023-04-29T05:36:59;11.00;98.70
20057;DHT22;10189;49.546;7.906;2023-04-29T05:39:25;11.10;98.10
20057;DHT22;10189;49.546;7.906;2023-04-29T05:42:02;11.10;97.60
20057;DHT22;10189;49.546;7.906;2023-04-29T05:44:35;11.20;96.80
20057;DHT22;10189;49.546;7.906;2023-04-29T05:47:01;11.30;95.60
20057;DHT22;10189;49.546;7.906;2023-04-29T05:49:29;11.40;94.60
20057;DHT22;10189;49.546;7.906;2023-04-29T05:51:55;11.40;93.70
20057;DHT22;10189;49.546;7.906;2023-04-29T05:54:20;11.40;93.10
20057;DHT22;10189;49.546;7.906;2023-04-29T05:56:46;11.40;94.10
20057;DHT22;10189;49.546;7.906;2023-04-29T05:59:12;11.40;92.70
20057;DHT22;10189;49.546;7.906;2023-04-29T06:01:38;11.50;94.20
20057;DHT22;10189;49.546;7.906;2023-04-29T06:04:08;11.60;92.50
20057;DHT22;10189;49.546;7.906;2023-04-29T06:06:53;11.70;92.20
20057;DHT22;10189;49.546;7.906;2023-04-29T06:09:40;11.60;92.50
20057;DHT22;10189;49.546;7.906;2023-04-29T06:12:09;11.70;91.60
20057;DHT22;10189;49.546;7.906;2023-04-29T06:14:35;11.60;90.50
20057;DHT22;10189;49.546;7.906;2023-04-29T06:17:02;11.70;91.30
20057;DHT22;10189;49.546;7.906;2023-04-29T06:19:28;11.70;90.80
20057;DHT22;10189;49.546;7.906;2023-04-29T06:21:54;11.80;89.90
20057;DHT22;10189;49.546;7.906;2023-04-29T06:24:20;12.00;90.10
20057;DHT22;10189;49.546;7.906;2023-04-29T06:26:46;12.30;89.00
20057;DHT22;10189;49.546;7.906;2023-04-29T06:29:13;12.20;88.00
20057;DHT22;10189;49.546;7.906;2023-04-29T06:31:40;12.40;88.10
20057;DHT22;10189;49.546;7.906;2023-04-29T06:34:07;12.30;87.40
20057;DHT22;10189;49.546;7.906;2023-04-29T06:36:37;12.10;87.90
20057;DHT22;10189;49.546;7.906;2023-04-29T06:39:03;12.20;88.40
20057;DHT22;10189;49.546;7.906;2023-04-29T06:41:52;12.50;88.30
20057;DHT22;10189;49.546;7.906;2023-04-29T06:44:36;12.50;85.40
20057;DHT22;10189;49.546;7.906;2023-04-29T06:47:32;12.60;87.00
20057;DHT22;10189;49.546;7.906;2023-04-29T06:50:09;12.90;83.50
20057;DHT22;10189;49.546;7.906;2023-04-29T06:52:35;12.90;82.40
20057;DHT22;10189;49.546;7.906;2023-04-29T06:55:02;13.10;83.70
20057;DHT22;10189;49.546;7.906;2023-04-29T06:57:28;13.10;80.70
20057;DHT22;10189;49.546;7.906;2023-04-29T06:59:54;13.20;82.80
20057;DHT22;10189;49.546;7.906;2023-04-29T07:02:20;13.20;80.80
20057;DHT22;10189;49.546;7.906;2023-04-29T07:04:46;13.00;81.60
20057;DHT22;10189;49.546;7.906;2023-04-29T07:07:14;12.90;80.90
20057;DHT22;10189;49.546;7.906;2023-04-29T07:09:40;13.00;82.40
20057;DHT22;10189;49.546;7.906;2023-04-29T07:12:06;13.00;81.40
20057;DHT22;10189;49.546;7.906;2023-04-29T07:14:32;13.00;81.40
20057;DHT22;10189;49.546;7.906;2023-04-29T07:16:58;13.20;81.70
20057;DHT22;10189;49.546;7.906;2023-04-29T07:19:24;13.20;81.30
20057;DHT22;10189;49.546;7.906;2023-04-29T07:21:50;13.10;80.30
20057;DHT22;10189;49.546;7.906;2023-04-29T07:24:16;12.70;82.20
20057;DHT22;10189;49.546;7.906;2023-04-29T07:26:45;12.40;82.30
20057;DHT22;10189;49.546;7.906;2023-04-29T07:29:14;12.30;83.70
20057;DHT22;10189;49.546;7.906;2023-04-29T07:31:40;12.00;85.70
20057;DHT22;10189;49.546;7.906;2023-04-29T07:34:06;11.80;85.40
20057;DHT22;10189;49.546;7.906;2023-04-29T07:36:32;11.90;86.00
20057;DHT22;10189;49.546;7.906;2023-04-29T07:38:59;12.00;86.60
20057;DHT22;10189;49.546;7.906;2023-04-29T07:41:26;12.00;86.00
20057;DHT22;10189;49.546;7.906;2023-04-29T07:43:52;12.00;85.10
20057;DHT22;10189;49.546;7.906;2023-04-29T07:46:18;11.90;85.60
20057;DHT22;10189;49.546;7.906;2023-04-29T07:48:44;11.90;85.70
20057;DHT22;10189;49.546;7.906;2023-04-29T07:51:14;11.90;85.20
20057;DHT22;10189;49.546;7.906;2023-04-29T07:53:41;11.80;85.40
20057;DHT22;10189;49.546;7.906;2023-04-29T07:56:08;11.80;86.10
20057;DHT22;10189;49.546;7.906;2023-04-29T07:58:34;11.80;85.50
20057;DHT22;10189;49.546;7.906;2023-04-29T08:01:10;11.70;86.20
20057;DHT22;10189;49.546;7.906;2023-04-29T08:03:37;11.60;86.10
20057;DHT22;10189;49.546;7.906;2023-04-29T08:06:04;11.60;86.80
20057;DHT22;10189;49.546;7.906;2023-04-29T08:08:33;11.70;87.50
20057;DHT22;10189;49.546;7.906;2023-04-29T08:10:59;11.60;88.30
20057;DHT22;10189;49.546;7.906;2023-04-29T08:13:25;11.70;89.10
20057;DHT22;10189;49.546;7.906;2023-04-29T08:15:51;11.70;86.30
20057;DHT22;10189;49.546;7.906;2023-04-29T08:18:18;11.40;87.40
20057;DHT22;10189;49.546;7.906;2023-04-29T08:20:46;11.30;87.50
20057;DHT22;10189;49.546;7.906;2023-04-29T08:23:14;11.30;88.70
20057;DHT22;10189;49.546;7.906;2023-04-29T08:25:44;11.10;88.10
20057;DHT22;10189;49.546;7.906;2023-04-29T08:28:10;11.10;86.90
20057;DHT22;10189;49.546;7.906;2023-04-29T08:30:40;10.90;87.80
20057;DHT22;10189;49.546;7.906;2023-04-29T08:33:06;10.90;87.90
20057;DHT22;10189;49.546;7.906;2023-04-29T08:35:32;10.80;87.90
20057;DHT22;10189;49.546;7.906;2023-04-29T08:38:04;10.70;88.60
20057;DHT22;10189;49.546;7.906;2023-04-29T08:40:41;10.70;88.20
20057;DHT22;10189;49.546;7.906;2023-04-29T08:43:09;10.60;88.40
20057;DHT22;10189;49.546;7.906;2023-04-29T08:45:36;10.40;88.70
20057;DHT22;10189;49.546;7.906;2023-04-29T08:48:05;10.40;89.80
20057;DHT22;10189;49.546;7.906;2023-04-29T08:50:37;10.40;89.00
20057;DHT22;10189;49.546;7.906;2023-04-29T08:53:08;10.50;89.60
20057;DHT22;10189;49.546;7.906;2023-04-29T08:55:44;10.50;90.10
20057;DHT22;10189;49.546;7.906;2023-04-29T08:58:12;10.50;89.80
20057;DHT22;10189;49.546;7.906;2023-04-29T09:00:41;10.40;89.20
20057;DHT22;10189;49.546;7.906;2023-04-29T09:06:00;10.50;89.90
20057;DHT22;10189;49.546;7.906;2023-04-29T09:08:27;10.60;89.30
20057;DHT22;10189;49.546;7.906;2023-04-29T09:10:55;10.70;88.90
20057;DHT22;10189;49.546;7.906;2023-04-29T09:13:23;10.70;88.00
20057;DHT22;10189;49.546;7.906;2023-04-29T09:15:56;10.60;87.80
20057;DHT22;10189;49.546;7.906;2023-04-29T09:18:42;10.60;88.30
20057;DHT22;10189;49.546;7.906;2023-04-29T09:21:17;10.70;89.30
20057;DHT22;10189;49.546;7.906;2023-04-29T09:23:46;10.90;88.30
20057;DHT22;10189;49.546;7.906;2023-04-29T09:26:14;11.10;88.20
20057;DHT22;10189;49.546;7.906;2023-04-29T09:28:40;11.50;87.30
20057;DHT22;10189;49.546;7.906;2023-04-29T09:31:10;11.50;84.00
20057;DHT22;10189;49.546;7.906;2023-04-29T09:33:56;11.30;84.20
20057;DHT22;10189;49.546;7.906;2023-04-29T09:36:43;11.40;85.10
20057;DHT22;10189;49.546;7.906;2023-04-29T09:39:15;11.40;85.20
20057;DHT22;10189;49.546;7.906;2023-04-29T09:44:22;11.50;85.50
20057;DHT22;10189;49.546;7.906;2023-04-29T09:49:33;11.90;82.20
20057;DHT22;10189;49.546;7.906;2023-04-29T09:52:05;12.00;81.40
20057;DHT22;10189;49.546;7.906;2023-04-29T09:54:36;12.00;81.60
20057;DHT22;10189;49.546;7.906;2023-04-29T09:57:07;12.00;80.60
20057;DHT22;10189;49.546;7.906;2023-04-29T09:59:39;12.10;80.60
20057;DHT22;10189;49.546;7.906;2023-04-29T10:02:09;12.10;81.20
20057;DHT22;10189;49.546;7.906;2023-04-29T10:04:40;12.30;80.00
20057;DHT22;10189;49.546;7.906;2023-04-29T10:07:12;12.30;77.50
20057;DHT22;10189;49.546;7.906;2023-04-29T10:09:40;12.50;78.80
20057;DHT22;10189;49.546;7.906;2023-04-29T10:12:06;12.60;79.10
20057;DHT22;10189;49.546;7.906;2023-04-29T10:14:37;12.90;77.80
20057;DHT22;10189;49.546;7.906;2023-04-29T10:17:23;13.10;77.30
20057;DHT22;10189;49.546;7.906;2023-04-29T10:20:03;13.40;75.10
20057;DHT22;10189;49.546;7.906;2023-04-29T10:22:45;13.60;73.00
20057;DHT22;10189;49.546;7.906;2023-04-29T10:25:14;13.30;72.80
20057;DHT22;10189;49.546;7.906;2023-04-29T10:27:42;13.00;74.40
20057;DHT22;10189;49.546;7.906;2023-04-29T10:30:16;13.10;75.30
20057;DHT22;10189;49.546;7.906;2023-04-29T10:32:43;13.30;75.70
20057;DHT22;10189;49.546;7.906;2023-04-29T10:35:11;13.60;73.70
20057;DHT22;10189;49.546;7.906;2023-04-29T10:37:43;13.50;72.70
20057;DHT22;10189;49.546;7.906;2023-04-29T10:40:39;13.40;74.00
20057;DHT22;10189;49.546;7.906;2023-04-29T10:43:14;13.30;74.70
20057;DHT22;10189;49.546;7.906;2023-04-29T10:45:40;13.50;75.30
20057;DHT22;10189;49.546;7.906;2023-04-29T10:48:10;13.80;72.30
20057;DHT22;10189;49.546;7.906;2023-04-29T10:53:17;13.80;71.40
20057;DHT22;10189;49.546;7.906;2023-04-29T10:55:52;13.40;74.10
20057;DHT22;10189;49.546;7.906;2023-04-29T11:01:14;13.60;75.10
20057;DHT22;10189;49.546;7.906;2023-04-29T11:14:24;13.30;74.30
20057;DHT22;10189;49.546;7.906;2023-04-29T11:17:06;13.10;75.20
20057;DHT22;10189;49.546;7.906;2023-04-29T11:19:36;13.00;75.70
20057;DHT22;10189;49.546;7.906;2023-04-29T11:24:59;13.00;74.40
20057;DHT22;10189;49.546;7.906;2023-04-29T11:27:32;13.10;75.60
20057;DHT22;10189;49.546;7.906;2023-04-29T11:30:00;13.30;73.70
20057;DHT22;10189;49.546;7.906;2023-04-29T11:32:37;13.20;72.90
20057;DHT22;10189;49.546;7.906;2023-04-29T11:37:36;13.00;74.70
20057;DHT22;10189;49.546;7.906;2023-04-29T11:40:04;12.90;76.30
20057;DHT22;10189;49.546;7.906;2023-04-29T11:42:34;13.10;74.40
20057;DHT22;10189;49.546;7.906;2023-04-29T11:45:01;13.20;74.70
20057;DHT22;10189;49.546;7.906;2023-04-29T11:47:28;13.30;74.70
20057;DHT22;10189;49.546;7.906;2023-04-29T11:50:06;13.30;74.00
20057;DHT22;10189;49.546;7.906;2023-04-29T11:52:35;13.20;75.30
20057;DHT22;10189;49.546;7.906;2023-04-29T11:55:07;13.10;75.70
20057;DHT22;10189;49.546;7.906;2023-04-29T11:57:35;12.90;77.00
20057;DHT22;10189;49.546;7.906;2023-04-29T12:00:01;12.70;76.90
20057;DHT22;10189;49.546;7.906;2023-04-29T12:02:34;12.60;78.10
20057;DHT22;10189;49.546;7.906;2023-04-29T12:05:05;12.60;78.10
20057;DHT22;10189;49.546;7.906;2023-04-29T12:07:33;12.30;80.00
20057;DHT22;10189;49.546;7.906;2023-04-29T12:10:00;12.00;81.30
20057;DHT22;10189;49.546;7.906;2023-04-29T12:12:26;11.70;83.60
20057;DHT22;10189;49.546;7.906;2023-04-29T12:14:53;11.60;84.90
20057;DHT22;10189;49.546;7.906;2023-04-29T12:17:19;11.50;86.10
20057;DHT22;10189;49.546;7.906;2023-04-29T12:19:45;11.50;85.60
20057;DHT22;10189;49.546;7.906;2023-04-29T12:22:12;11.30;85.30
20057;DHT22;10189;49.546;7.906;2023-04-29T12:24:39;11.20;85.30
20057;DHT22;10189;49.546;7.906;2023-04-29T12:27:09;11.30;85.30
20057;DHT22;10189;49.546;7.906;2023-04-29T12:29:36;11.30;85.10
20057;DHT22;10189;49.546;7.906;2023-04-29T12:32:03;11.30;85.40
20057;DHT22;10189;49.546;7.906;2023-04-29T12:34:30;11.40;84.70
20057;DHT22;10189;49.546;7.906;2023-04-29T12:36:58;11.50;83.90
20057;DHT22;10189;49.546;7.906;2023-04-29T12:39:29;11.40;83.70
20057;DHT22;10189;49.546;7.906;2023-04-29T12:41:59;11.30;84.60
20057;DHT22;10189;49.546;7.906;2023-04-29T12:44:35;11.30;84.20
20057;DHT22;10189;49.546;7.906;2023-04-29T12:47:10;11.40;84.20
20057;DHT22;10189;49.546;7.906;2023-04-29T12:49:41;11.40;84.10
20057;DHT22;10189;49.546;7.906;2023-04-29T12:52:08;11.40;84.20
20057;DHT22;10189;49.546;7.906;2023-04-29T12:54:38;11.50;83.10
20057;DHT22;10189;49.546;7.906;2023-04-29T12:57:08;11.60;83.30
20057;DHT22;10189;49.546;7.906;2023-04-29T12:59:35;11.70;82.60
20057;DHT22;10189;49.546;7.906;2023-04-29T13:02:01;11.90;82.40
20057;DHT22;10189;49.546;7.906;2023-04-29T13:04:27;12.00;81.30
20057;DHT22;10189;49.546;7.906;2023-04-29T13:06:53;12.20;81.70
20057;DHT22;10189;49.546;7.906;2023-04-29T13:09:25;12.40;81.10
20057;DHT22;10189;49.546;7.906;2023-04-29T13:11:51;12.40;80.30
20057;DHT22;10189;49.546;7.906;2023-04-29T13:14:17;12.50;79.80
20057;DHT22;10189;49.546;7.906;2023-04-29T13:16:44;12.40;79.70
20057;DHT22;10189;49.546;7.906;2023-04-29T13:19:10;12.30;80.70
20057;DHT22;10189;49.546;7.906;2023-04-29T13:21:37;12.50;80.00
20057;DHT22;10189;49.546;7.906;2023-04-29T13:24:04;12.50;79.80
20057;DHT22;10189;49.546;7.906;2023-04-29T13:26:30;12.60;79.70
20057;DHT22;10189;49.546;7.906;2023-04-29T13:28:55;12.30;79.90
20057;DHT22;10189;49.546;7.906;2023-04-29T13:31:21;12.50;79.00
20057;DHT22;10189;49.546;7.906;2023-04-29T13:33:47;12.90;78.80
20057;DHT22;10189;49.546;7.906;2023-04-29T13:36:13;13.20;77.20
20057;DHT22;10189;49.546;7.906;2023-04-29T13:38:40;13.10;75.10
20057;DHT22;10189;49.546;7.906;2023-04-29T13:41:06;12.70;77.00
20057;DHT22;10189;49.546;7.906;2023-04-29T13:43:32;12.80;76.50
20057;DHT22;10189;49.546;7.906;2023-04-29T13:45:57;12.90;76.20
20057;DHT22;10189;49.546;7.906;2023-04-29T13:48:23;12.90;78.30
20057;DHT22;10189;49.546;7.906;2023-04-29T13:50:49;13.10;77.10
20057;DHT22;10189;49.546;7.906;2023-04-29T13:53:15;13.10;77.10
20057;DHT22;10189;49.546;7.906;2023-04-29T13:55:44;13.00;76.30
20057;DHT22;10189;49.546;7.906;2023-04-29T13:58:10;13.00;77.00
20057;DHT22;10189;49.546;7.906;2023-04-29T14:00:35;12.70;77.40
20057;DHT22;10189;49.546;7.906;2023-04-29T14:03:03;12.30;78.80
20057;DHT22;10189;49.546;7.906;2023-04-29T14:05:32;12.20;78.90
20057;DHT22;10189;49.546;7.906;2023-04-29T14:07:58;12.30;77.50
20057;DHT22;10189;49.546;7.906;2023-04-29T14:10:23;12.40;76.50
20057;DHT22;10189;49.546;7.906;2023-04-29T14:12:49;12.50;78.50
20057;DHT22;10189;49.546;7.906;2023-04-29T14:15:15;12.90;76.80
20057;DHT22;10189;49.546;7.906;2023-04-29T14:17:41;12.80;74.10
20057;DHT22;10189;49.546;7.906;2023-04-29T14:20:07;12.90;73.60
20057;DHT22;10189;49.546;7.906;2023-04-29T14:22:33;13.20;72.70
20057;DHT22;10189;49.546;7.906;2023-04-29T14:24:59;13.50;71.60
20057;DHT22;10189;49.546;7.906;2023-04-29T14:27:25;13.70;71.80
20057;DHT22;10189;49.546;7.906;2023-04-29T14:29:51;13.50;72.00
20057;DHT22;10189;49.546;7.906;2023-04-29T14:32:17;13.60;73.10
20057;DHT22;10189;49.546;7.906;2023-04-29T14:34:43;13.40;71.50
20057;DHT22;10189;49.546;7.906;2023-04-29T14:37:09;13.50;72.90
20057;DHT22;10189;49.546;7.906;2023-04-29T14:39:34;13.60;71.00
20057;DHT22;10189;49.546;7.906;2023-04-29T14:42:00;13.70;70.30
20057;DHT22;10189;49.546;7.906;2023-04-29T14:44:27;13.50;70.80
20057;DHT22;10189;49.546;7.906;2023-04-29T14:46:52;13.70;71.40
20057;DHT22;10189;49.546;7.906;2023-04-29T14:49:18;13.80;69.60
20057;DHT22;10189;49.546;7.906;2023-04-29T14:51:44;13.50;68.70
20057;DHT22;10189;49.546;7.906;2023-04-29T14:54:10;13.10;70.30
20057;DHT22;10189;49.546;7.906;2023-04-29T14:56:37;12.90;70.90
20057;DHT22;10189;49.546;7.906;2023-04-29T14:59:02;12.90;72.30
20057;DHT22;10189;49.546;7.906;2023-04-29T15:01:28;12.80;72.00
20057;DHT22;10189;49.546;7.906;2023-04-29T15:03:54;12.80;73.00
20057;DHT22;10189;49.546;7.906;2023-04-29T15:06:20;12.90;73.10
20057;DHT22;10189;49.546;7.906;2023-04-29T15:08:46;13.10;74.10
20057;DHT22;10189;49.546;7.906;2023-04-29T15:11:12;13.10;72.30
20057;DHT22;10189;49.546;7.906;2023-04-29T15:13:37;13.00;72.90
20057;DHT22;10189;49.546;7.906;2023-04-29T15:16:04;12.90;73.90
20057;DHT22;10189;49.546;7.906;2023-04-29T15:18:32;12.70;74.60
20057;DHT22;10189;49.546;7.906;2023-04-29T15:20:57;12.80;75.00
20057;DHT22;10189;49.546;7.906;2023-04-29T15:23:23;12.80;74.30
20057;DHT22;10189;49.546;7.906;2023-04-29T15:25:50;12.70;75.10
20057;DHT22;10189;49.546;7.906;2023-04-29T15:28:17;12.70;74.60
20057;DHT22;10189;49.546;7.906;2023-04-29T15:30:43;12.80;74.60
20057;DHT22;10189;49.546;7.906;2023-04-29T15:33:09;12.90;75.20
20057;DHT22;10189;49.546;7.906;2023-04-29T15:35:35;12.90;75.20
20057;DHT22;10189;49.546;7.906;2023-04-29T15:38:01;13.10;75.50
20057;DHT22;10189;49.546;7.906;2023-04-29T15:40:27;13.40;73.20
20057;DHT22;10189;49.546;7.906;2023-04-29T15:42:53;13.60;73.40
20057;DHT22;10189;49.546;7.906;2023-04-29T15:45:19;13.50;73.10
20057;DHT22;10189;49.546;7.906;2023-04-29T15:47:45;13.50;73.70
20057;DHT22;10189;49.546;7.906;2023-04-29T15:50:11;13.20;73.90
20057;DHT22;10189;49.546;7.906;2023-04-29T15:52:37;13.20;74.10
20057;DHT22;10189;49.546;7.906;2023-04-29T15:55:05;13.20;74.90
20057;DHT22;10189;49.546;7.906;2023-04-29T15:57:31;13.40;74.30
20057;DHT22;10189;49.546;7.906;2023-04-29T15:59:59;13.50;73.20
20057;DHT22;10189;49.546;7.906;2023-04-29T16:02:25;13.60;74.30
20057;DHT22;10189;49.546;7.906;2023-04-29T16:04:50;13.80;73.30
20057;DHT22;10189;49.546;7.906;2023-04-29T16:07:17;13.80;72.60
20057;DHT22;10189;49.546;7.906;2023-04-29T16:09:42;13.40;73.20
20057;DHT22;10189;49.546;7.906;2023-04-29T16:12:08;13.30;74.10
20057;DHT22;10189;49.546;7.906;2023-04-29T16:14:36;13.20;74.20
20057;DHT22;10189;49.546;7.906;2023-04-29T16:17:02;13.10;74.90
20057;DHT22;10189;49.546;7.906;2023-04-29T16:19:29;13.00;75.80
20057;DHT22;10189;49.546;7.906;2023-04-29T16:21:55;12.90;76.60